sensor_id;sensor_type;location;lat;lon;timestamp;pressure;altitude;pressure_sealevel;temperature;humidity
24031;BME280;12240;51.142;22.486;2023-09-18T00:00:50;99739.63;;;15.40;100.00
24031;BME280;12240;51.142;22.486;2023-09-18T00:03:21;99742.78;;;15.35;100.00
24031;BME280;12240;51.142;22.486;2023-09-18T00:05:53;99745.00;;;15.32;100.00
24031;BME280;12240;51.142;22.486;2023-09-18T00:08:21;99745.03;;;15.24;100.00
24031;BME280;12240;51.142;22.486;2023-09-18T00:10:52;99742.66;;;15.29;100.00
24031;BME280;12240;51.142;22.486;2023-09-18T00:13:22;99742.66;;;15.20;100.00
24031;BME280;12240;51.142;22.486;2023-09-18T00:15:53;99734.31;;;15.24;100.00
24031;BME280;12240;51.142;22.486;2023-09-18T00:18:23;99723.72;;;15.22;100.00
24031;BME280;12240;51.142;22.486;2023-09-18T00:20:51;99731.63;;;15.15;100.00
24031;BME280;12240;51.142;22.486;2023-09-18T00:23:20;62174.59;;;-142.46;100.00
24031;BME280;12240;51.142;22.486;2023-09-18T00:25:48;62174.59;;;-142.46;100.00
24031;BME280;12240;51.142;22.486;2023-09-18T00:28:16;99731.63;;;15.15;100.00
24031;BME280;12240;51.142;22.486;2023-09-18T00:30:48;99736.63;;;14.72;100.00
24031;BME280;12240;51.142;22.486;2023-09-18T00:33:18;99732.06;;;14.72;100.00
24031;BME280;12240;51.142;22.486;2023-09-18T00:35:50;99726.88;;;14.71;100.00
24031;BME280;12240;51.142;22.486;2023-09-18T00:38:18;99728.38;;;14.65;100.00
24031;BME280;12240;51.142;22.486;2023-09-18T00:40:48;99731.59;;;14.45;100.00
24031;BME280;12240;51.142;22.486;2023-09-18T00:43:16;99731.59;;;14.53;100.00
24031;BME280;12240;51.142;22.486;2023-09-18T00:45:48;99727.56;;;14.65;100.00
24031;BME280;12240;51.142;22.486;2023-09-18T00:48:17;99726.41;;;14.59;100.00
24031;BME280;12240;51.142;22.486;2023-09-18T00:50:45;99726.75;;;14.56;100.00
24031;BME280;12240;51.142;22.486;2023-09-18T00:53:19;99722.72;;;14.52;100.00
24031;BME280;12240;51.142;22.486;2023-09-18T00:55:50;99731.28;;;14.48;100.00
24031;BME280;12240;51.142;22.486;2023-09-18T00:58:20;99722.72;;;14.36;100.00
24031;BME280;12240;51.142;22.486;2023-09-18T01:00:48;99732.28;;;14.39;100.00
24031;BME280;12240;51.142;22.486;2023-09-18T01:03:22;99733.13;;;14.39;100.00
24031;BME280;12240;51.142;22.486;2023-09-18T01:05:51;99724.41;;;14.37;100.00
24031;BME280;12240;51.142;22.486;2023-09-18T01:08:20;99731.59;;;14.37;100.00
24031;BME280;12240;51.142;22.486;2023-09-18T01:11:10;99731.75;;;14.43;100.00
24031;BME280;12240;51.142;22.486;2023-09-18T01:13:54;99726.75;;;14.40;100.00
24031;BME280;12240;51.142;22.486;2023-09-18T01:16:39;99727.78;;;14.39;100.00
24031;BME280;12240;51.142;22.486;2023-09-18T01:19:11;99729.75;;;14.45;100.00
24031;BME280;12240;51.142;22.486;2023-09-18T01:21:40;99727.25;;;14.36;100.00
24031;BME280;12240;51.142;22.486;2023-09-18T01:24:07;99723.34;;;14.14;100.00
24031;BME280;12240;51.142;22.486;2023-09-18T01:26:35;99730.88;;;14.02;100.00
24031;BME280;12240;51.142;22.486;2023-09-18T01:29:05;99725.19;;;13.89;100.00
24031;BME280;12240;51.142;22.486;2023-09-18T01:31:32;99729.84;;;13.79;100.00
24031;BME280;12240;51.142;22.486;2023-09-18T01:34:01;99722.66;;;13.72;100.00
24031;BME280;12240;51.142;22.486;2023-09-18T01:36:29;99719.97;;;13.72;100.00
24031;BME280;12240;51.142;22.486;2023-09-18T01:38:58;99724.28;;;13.65;100.00
24031;BME280;12240;51.142;22.486;2023-09-18T01:41:26;99726.81;;;13.74;100.00
24031;BME280;12240;51.142;22.486;2023-09-18T01:43:54;99714.63;;;13.88;100.00
24031;BME280;12240;51.142;22.486;2023-09-18T01:46:23;62174.59;;;-142.46;100.00
24031;BME280;12240;51.142;22.486;2023-09-18T01:48:51;99719.00;;;13.89;100.00
24031;BME280;12240;51.142;22.486;2023-09-18T01:51:20;99722.66;;;13.80;100.00
24031;BME280;12240;51.142;22.486;2023-09-18T01:53:48;62174.59;;;-142.46;100.00
24031;BME280;12240;51.142;22.486;2023-09-18T01:56:17;62174.59;;;-142.46;100.00
24031;BME280;12240;51.142;22.486;2023-09-18T01:58:45;62174.59;;;-142.46;100.00
24031;BME280;12240;51.142;22.486;2023-09-18T02:01:13;62174.59;;;-142.46;100.00
24031;BME280;12240;51.142;22.486;2023-09-18T02:03:42;62174.59;;;-142.46;100.00
24031;BME280;12240;51.142;22.486;2023-09-18T02:06:30;62174.59;;;-142.46;100.00
24031;BME280;12240;51.142;22.486;2023-09-18T02:08:59;62174.59;;;-142.46;100.00
24031;BME280;12240;51.142;22.486;2023-09-18T02:11:28;62174.59;;;-142.46;100.00
24031;BME280;12240;51.142;22.486;2023-09-18T02:13:56;62174.59;;;-142.46;100.00
24031;BME280;12240;51.142;22.486;2023-09-18T02:16:25;62174.59;;;-142.46;100.00
24031;BME280;12240;51.142;22.486;2023-09-18T02:18:55;62174.59;;;-142.46;100.00
24031;BME280;12240;51.142;22.486;2023-09-18T02:21:25;62174.59;;;-142.46;100.00
24031;BME280;12240;51.142;22.486;2023-09-18T02:23:54;62174.59;;;-142.46;100.00
24031;BME280;12240;51.142;22.486;2023-09-18T02:26:24;62174.59;;;-142.46;100.00
24031;BME280;12240;51.142;22.486;2023-09-18T02:28:53;62174.59;;;-142.46;100.00
24031;BME280;12240;51.142;22.486;2023-09-18T02:31:22;62174.59;;;-142.46;100.00
24031;BME280;12240;51.142;22.486;2023-09-18T02:33:50;62174.59;;;-142.46;100.00
24031;BME280;12240;51.142;22.486;2023-09-18T02:36:18;62174.59;;;-142.46;100.00
24031;BME280;12240;51.142;22.486;2023-09-18T02:38:49;62174.59;;;-142.46;100.00
24031;BME280;12240;51.142;22.486;2023-09-18T02:41:18;62174.59;;;-142.46;100.00
24031;BME280;12240;51.142;22.486;2023-09-18T02:43:46;62174.59;;;-142.46;100.00
24031;BME280;12240;51.142;22.486;2023-09-18T02:46:14;62174.59;;;-142.46;100.00
24031;BME280;12240;51.142;22.486;2023-09-18T02:48:43;62174.59;;;-142.46;100.00
24031;BME280;12240;51.142;22.486;2023-09-18T02:51:11;62174.59;;;-142.46;100.00
24031;BME280;12240;51.142;22.486;2023-09-18T02:53:39;62174.59;;;-142.46;100.00
24031;BME280;12240;51.142;22.486;2023-09-18T02:56:07;62174.59;;;-142.46;100.00
24031;BME280;12240;51.142;22.486;2023-09-18T02:58:35;62174.59;;;-142.46;100.00
24031;BME280;12240;51.142;22.486;2023-09-18T03:01:03;62174.59;;;-142.46;100.00
24031;BME280;12240;51.142;22.486;2023-09-18T03:03:33;62174.59;;;-142.46;100.00
24031;BME280;12240;51.142;22.486;2023-09-18T03:06:04;62174.59;;;-142.46;100.00
24031;BME280;12240;51.142;22.486;2023-09-18T03:08:33;62174.59;;;-142.46;100.00
24031;BME280;12240;51.142;22.486;2023-09-18T03:11:01;62174.59;;;-142.46;100.00
24031;BME280;12240;51.142;22.486;2023-09-18T03:13:30;62174.59;;;-142.46;100.00
24031;BME280;12240;51.142;22.486;2023-09-18T03:15:59;62174.59;;;-142.46;100.00
24031;BME280;12240;51.142;22.486;2023-09-18T03:18:28;62174.59;;;-142.46;100.00
24031;BME280;12240;51.142;22.486;2023-09-18T03:20:56;62174.59;;;-142.46;100.00
24031;BME280;12240;51.142;22.486;2023-09-18T03:23:24;62174.59;;;-142.46;100.00
24031;BME280;12240;51.142;22.486;2023-09-18T03:25:53;62174.59;;;-142.46;100.00
24031;BME280;12240;51.142;22.486;2023-09-18T03:28:21;62174.59;;;-142.46;100.00
24031;BME280;12240;51.142;22.486;2023-09-18T03:30:50;62174.59;;;-142.46;100.00
24031;BME280;12240;51.142;22.486;2023-09-18T03:33:21;62174.59;;;-142.46;100.00
24031;BME280;12240;51.142;22.486;2023-09-18T03:35:51;62174.59;;;-142.46;100.00
24031;BME280;12240;51.142;22.486;2023-09-18T03:38:25;62174.59;;;-142.46;100.00
24031;BME280;12240;51.142;22.486;2023-09-18T03:40:54;62174.59;;;-142.46;100.00
24031;BME280;12240;51.142;22.486;2023-09-18T03:43:22;62174.59;;;-142.46;100.00
24031;BME280;12240;51.142;22.486;2023-09-18T03:45:50;62174.59;;;-142.46;100.00
24031;BME280;12240;51.142;22.486;2023-09-18T03:48:19;62174.59;;;-142.46;100.00
24031;BME280;12240;51.142;22.486;2023-09-18T03:50:48;62174.59;;;-142.46;100.00
24031;BME280;12240;51.142;22.486;2023-09-18T03:53:16;62174.59;;;-142.46;100.00
24031;BME280;12240;51.142;22.486;2023-09-18T03:55:46;62174.59;;;-142.46;100.00
24031;BME280;12240;51.142;22.486;2023-09-18T03:58:16;62174.59;;;-142.46;100.00
24031;BME280;12240;51.142;22.486;2023-09-18T04:00:44;62174.59;;;-142.46;100.00
24031;BME280;12240;51.142;22.486;2023-09-18T04:03:12;62174.59;;;-142.46;100.00
24031;BME280;12240;51.142;22.486;2023-09-18T04:05:40;62174.59;;;-142.46;100.00
24031;BME280;12240;51.142;22.486;2023-09-18T04:08:08;62174.59;;;-142.46;100.00
24031;BME280;12240;51.142;22.486;2023-09-18T04:10:36;62174.59;;;-142.46;100.00
24031;BME280;12240;51.142;22.486;2023-09-18T04:13:04;62174.59;;;-142.46;100.00
24031;BME280;12240;51.142;22.486;2023-09-18T04:15:32;62174.59;;;-142.46;100.00
24031;BME280;12240;51.142;22.486;2023-09-18T04:18:00;62174.59;;;-142.46;100.00
24031;BME280;12240;51.142;22.486;2023-09-18T04:20:28;62174.59;;;-142.46;100.00
24031;BME280;12240;51.142;22.486;2023-09-18T04:23:23;62174.59;;;-142.46;100.00
24031;BME280;12240;51.142;22.486;2023-09-18T04:25:53;62174.59;;;-142.46;100.00
24031;BME280;12240;51.142;22.486;2023-09-18T04:28:22;62174.59;;;-142.46;100.00
24031;BME280;12240;51.142;22.486;2023-09-18T04:30:51;62174.59;;;-142.46;100.00
24031;BME280;12240;51.142;22.486;2023-09-18T04:33:20;62174.59;;;-142.46;100.00
24031;BME280;12240;51.142;22.486;2023-09-18T04:35:50;62174.59;;;-142.46;100.00
24031;BME280;12240;51.142;22.486;2023-09-18T04:38:18;62174.59;;;-142.46;100.00
24031;BME280;12240;51.142;22.486;2023-09-18T04:40:48;62174.59;;;-142.46;100.00
24031;BME280;12240;51.142;22.486;2023-09-18T04:43:16;62174.59;;;-142.46;100.00
24031;BME280;12240;51.142;22.486;2023-09-18T04:45:44;62174.59;;;-142.46;100.00
24031;BME280;12240;51.142;22.486;2023-09-18T04:48:14;62174.59;;;-142.46;100.00
24031;BME280;12240;51.142;22.486;2023-09-18T04:50:43;62174.59;;;-142.46;100.00
24031;BME280;12240;51.142;22.486;2023-09-18T04:53:13;62174.59;;;-142.46;100.00
24031;BME280;12240;51.142;22.486;2023-09-18T04:55:42;62174.59;;;-142.46;100.00
24031;BME280;12240;51.142;22.486;2023-09-18T04:58:09;62174.59;;;-142.46;100.00
24031;BME280;12240;51.142;22.486;2023-09-18T05:00:37;62174.59;;;-142.46;100.00
24031;BME280;12240;51.142;22.486;2023-09-18T05:03:05;62174.59;;;-142.46;100.00
24031;BME280;12240;51.142;22.486;2023-09-18T05:05:35;62174.59;;;-142.46;100.00
24031;BME280;12240;51.142;22.486;2023-09-18T05:08:06;62174.59;;;-142.46;100.00
24031;BME280;12240;51.142;22.486;2023-09-18T05:10:36;62174.59;;;-142.46;100.00
24031;BME280;12240;51.142;22.486;2023-09-18T05:13:05;62174.59;;;-142.46;100.00
24031;BME280;12240;51.142;22.486;2023-09-18T05:15:33;62174.59;;;-142.46;100.00
24031;BME280;12240;51.142;22.486;2023-09-18T05:18:01;62174.59;;;-142.46;100.00
24031;BME280;12240;51.142;22.486;2023-09-18T05:20:34;62174.59;;;-142.46;100.00
24031;BME280;12240;51.142;22.486;2023-09-18T05:27:24;62174.59;;;-142.46;100.00
24031;BME280;12240;51.142;22.486;2023-09-18T05:29:54;62174.59;;;-142.46;100.00
24031;BME280;12240;51.142;22.486;2023-09-18T05:32:21;62174.59;;;-142.46;100.00
24031;BME280;12240;51.142;22.486;2023-09-18T05:34:49;62174.59;;;-142.46;100.00
24031;BME280;12240;51.142;22.486;2023-09-18T05:37:18;62174.59;;;-142.46;100.00
24031;BME280;12240;51.142;22.486;2023-09-18T05:51:30;99607.69;;;17.20;100.00
24031;BME280;12240;51.142;22.486;2023-09-18T05:54:01;99611.50;;;17.11;100.00
24031;BME280;12240;51.142;22.486;2023-09-18T05:56:29;99601.13;;;17.08;100.00
24031;BME280;12240;51.142;22.486;2023-09-18T05:59:06;99601.66;;;17.18;100.00
24031;BME280;12240;51.142;22.486;2023-09-18T06:02:14;99598.97;;;17.18;100.00
24031;BME280;12240;51.142;22.486;2023-09-18T06:09:13;99590.94;;;17.54;100.00
24031;BME280;12240;51.142;22.486;2023-09-18T06:11:41;99591.63;;;17.84;100.00
24031;BME280;12240;51.142;22.486;2023-09-18T06:14:41;99595.09;;;17.99;100.00
24031;BME280;12240;51.142;22.486;2023-09-18T06:17:20;99595.09;;;17.99;100.00
24031;BME280;12240;51.142;22.486;2023-09-18T06:19:51;99597.06;;;18.39;100.00
24031;BME280;12240;51.142;22.486;2023-09-18T06:23:53;99586.63;;;18.29;100.00
24031;BME280;12240;51.142;22.486;2023-09-18T06:31:13;99576.84;;;18.90;100.00
24031;BME280;12240;51.142;22.486;2023-09-18T06:33:42;99577.09;;;18.95;100.00
24031;BME280;12240;51.142;22.486;2023-09-18T06:36:10;99566.16;;;19.16;100.00
24031;BME280;12240;51.142;22.486;2023-09-18T06:38:37;99573.03;;;19.19;100.00
24031;BME280;12240;51.142;22.486;2023-09-18T06:41:06;99574.22;;;19.03;100.00
24031;BME280;12240;51.142;22.486;2023-09-18T06:43:34;99566.03;;;19.37;100.00
24031;BME280;12240;51.142;22.486;2023-09-18T06:46:02;99567.75;;;19.51;100.00
24031;BME280;12240;51.142;22.486;2023-09-18T06:48:30;99566.31;;;19.68;100.00
24031;BME280;12240;51.142;22.486;2023-09-18T06:51:01;99565.31;;;19.83;100.00
24031;BME280;12240;51.142;22.486;2023-09-18T06:53:29;99566.16;;;20.29;100.00
24031;BME280;12240;51.142;22.486;2023-09-18T06:55:57;99562.78;;;20.46;100.00
24031;BME280;12240;51.142;22.486;2023-09-18T06:58:25;99562.78;;;20.46;100.00
24031;BME280;12240;51.142;22.486;2023-09-18T07:00:53;62174.59;;;-142.46;100.00
24031;BME280;12240;51.142;22.486;2023-09-18T07:03:21;62174.59;;;-142.46;100.00
24031;BME280;12240;51.142;22.486;2023-09-18T07:05:51;99562.78;;;20.46;100.00
24031;BME280;12240;51.142;22.486;2023-09-18T07:08:19;99542.16;;;21.16;100.00
24031;BME280;12240;51.142;22.486;2023-09-18T07:10:50;99539.94;;;21.44;100.00
24031;BME280;12240;51.142;22.486;2023-09-18T07:13:19;99529.09;;;21.44;100.00
24031;BME280;12240;51.142;22.486;2023-09-18T07:15:46;99537.78;;;21.52;100.00
24031;BME280;12240;51.142;22.486;2023-09-18T07:18:16;99529.75;;;21.39;100.00
24031;BME280;12240;51.142;22.486;2023-09-18T07:20:44;99541.22;;;21.97;100.00
24031;BME280;12240;51.142;22.486;2023-09-18T07:23:13;99531.88;;;21.93;100.00
24031;BME280;12240;51.142;22.486;2023-09-18T07:25:40;99532.19;;;22.28;100.00
24031;BME280;12240;51.142;22.486;2023-09-18T07:28:11;99525.19;;;22.20;100.00
24031;BME280;12240;51.142;22.486;2023-09-18T07:30:43;99518.00;;;22.08;100.00
24031;BME280;12240;51.142;22.486;2023-09-18T07:33:13;99510.94;;;22.43;100.00
24031;BME280;12240;51.142;22.486;2023-09-18T07:35:50;99509.59;;;22.34;100.00
24031;BME280;12240;51.142;22.486;2023-09-18T07:38:19;99500.56;;;22.40;100.00
24031;BME280;12240;51.142;22.486;2023-09-18T07:40:47;99493.91;;;23.08;100.00
24031;BME280;12240;51.142;22.486;2023-09-18T07:43:15;99485.00;;;22.71;100.00
24031;BME280;12240;51.142;22.486;2023-09-18T07:45:43;99481.50;;;22.82;100.00
24031;BME280;12240;51.142;22.486;2023-09-18T07:48:11;99480.97;;;22.92;100.00
24031;BME280;12240;51.142;22.486;2023-09-18T07:50:43;99480.50;;;22.95;100.00
24031;BME280;12240;51.142;22.486;2023-09-18T07:53:12;99475.81;;;23.02;100.00
24031;BME280;12240;51.142;22.486;2023-09-18T07:55:40;99475.25;;;23.11;100.00
24031;BME280;12240;51.142;22.486;2023-09-18T07:58:08;99473.59;;;23.29;100.00
24031;BME280;12240;51.142;22.486;2023-09-18T08:00:37;99460.41;;;23.55;100.00
24031;BME280;12240;51.142;22.486;2023-09-18T08:03:05;99467.28;;;23.92;100.00
24031;BME280;12240;51.142;22.486;2023-09-18T08:05:33;99447.19;;;23.70;100.00
24031;BME280;12240;51.142;22.486;2023-09-18T08:08:01;99446.06;;;24.12;100.00
24031;BME280;12240;51.142;22.486;2023-09-18T08:10:36;99442.59;;;23.82;100.00
24031;BME280;12240;51.142;22.486;2023-09-18T08:13:05;99436.78;;;23.26;100.00
24031;BME280;12240;51.142;22.486;2023-09-18T08:15:33;99442.09;;;23.62;100.00
24031;BME280;12240;51.142;22.486;2023-09-18T08:18:01;99436.94;;;23.95;100.00
24031;BME280;12240;51.142;22.486;2023-09-18T08:20:29;99441.78;;;23.93;100.00
24031;BME280;12240;51.142;22.486;2023-09-18T08:22:57;99431.25;;;24.20;100.00
24031;BME280;12240;51.142;22.486;2023-09-18T08:25:28;99422.28;;;24.19;100.00
24031;BME280;12240;51.142;22.486;2023-09-18T08:27:57;99425.31;;;24.35;100.00
24031;BME280;12240;51.142;22.486;2023-09-18T08:30:25;99418.34;;;23.92;100.00
24031;BME280;12240;51.142;22.486;2023-09-18T08:32:53;99425.00;;;24.19;100.00
24031;BME280;12240;51.142;22.486;2023-09-18T08:35:21;99425.38;;;24.51;100.00
24031;BME280;12240;51.142;22.486;2023-09-18T08:37:50;99413.06;;;24.60;100.00
24031;BME280;12240;51.142;22.486;2023-09-18T08:40:18;99399.84;;;24.41;100.00
24031;BME280;12240;51.142;22.486;2023-09-18T08:42:47;99407.22;;;24.40;100.00
24031;BME280;12240;51.142;22.486;2023-09-18T08:45:43;99409.66;;;24.53;100.00
24031;BME280;12240;51.142;22.486;2023-09-18T08:48:12;99391.84;;;24.74;100.00
24031;BME280;12240;51.142;22.486;2023-09-18T08:50:42;99395.34;;;24.86;100.00
24031;BME280;12240;51.142;22.486;2023-09-18T08:53:11;99378.97;;;25.14;100.00
24031;BME280;12240;51.142;22.486;2023-09-18T08:55:40;99375.25;;;25.20;100.00
24031;BME280;12240;51.142;22.486;2023-09-18T08:58:08;99369.19;;;25.46;100.00
24031;BME280;12240;51.142;22.486;2023-09-18T09:00:37;99344.81;;;25.56;100.00
24031;BME280;12240;51.142;22.486;2023-09-18T09:03:06;99335.13;;;25.65;100.00
24031;BME280;12240;51.142;22.486;2023-09-18T09:05:34;99329.75;;;25.70;100.00
24031;BME280;12240;51.142;22.486;2023-09-18T09:08:02;99327.78;;;25.66;100.00
24031;BME280;12240;51.142;22.486;2023-09-18T09:10:30;99324.41;;;25.97;100.00
24031;BME280;12240;51.142;22.486;2023-09-18T09:12:59;99313.09;;;25.88;100.00
24031;BME280;12240;51.142;22.486;2023-09-18T09:15:43;99312.59;;;25.91;100.00
24031;BME280;12240;51.142;22.486;2023-09-18T09:18:14;99299.91;;;26.02;100.00
24031;BME280;12240;51.142;22.486;2023-09-18T09:21:02;99307.88;;;26.03;100.00
24031;BME280;12240;51.142;22.486;2023-09-18T09:26:22;99308.50;;;26.10;100.00
24031;BME280;12240;51.142;22.486;2023-09-18T09:28:51;99315.84;;;25.88;100.00
24031;BME280;12240;51.142;22.486;2023-09-18T09:31:28;99315.31;;;26.29;100.00
24031;BME280;12240;51.142;22.486;2023-09-18T09:33:57;99316.84;;;26.69;100.00
24031;BME280;12240;51.142;22.486;2023-09-18T09:36:26;99318.72;;;26.90;100.00
24031;BME280;12240;51.142;22.486;2023-09-18T09:38:56;99327.25;;;26.98;100.00
24031;BME280;12240;51.142;22.486;2023-09-18T09:41:26;99299.91;;;26.67;100.00
24031;BME280;12240;51.142;22.486;2023-09-18T09:43:56;99305.88;;;26.42;100.00
24031;BME280;12240;51.142;22.486;2023-09-18T09:46:26;99305.72;;;26.75;100.00
24031;BME280;12240;51.142;22.486;2023-09-18T09:49:01;99306.66;;;26.64;100.00
24031;BME280;12240;51.142;22.486;2023-09-18T09:51:30;99303.56;;;26.77;100.00
24031;BME280;12240;51.142;22.486;2023-09-18T09:53:59;99317.03;;;26.89;100.00
24031;BME280;12240;51.142;22.486;2023-09-18T09:56:49;99309.16;;;26.92;100.00
24031;BME280;12240;51.142;22.486;2023-09-18T09:59:19;99306.28;;;27.09;100.00
24031;BME280;12240;51.142;22.486;2023-09-18T10:01:48;99303.34;;;27.15;100.00
24031;BME280;12240;51.142;22.486;2023-09-18T10:04:19;99313.06;;;27.33;100.00
24031;BME280;12240;51.142;22.486;2023-09-18T10:06:52;99301.94;;;27.39;100.00
24031;BME280;12240;51.142;22.486;2023-09-18T10:09:26;99293.72;;;27.39;100.00
24031;BME280;12240;51.142;22.486;2023-09-18T10:11:58;99293.38;;;26.99;100.00
24031;BME280;12240;51.142;22.486;2023-09-18T10:14:32;99295.13;;;26.84;100.00
24031;BME280;12240;51.142;22.486;2023-09-18T10:17:22;99297.19;;;26.98;100.00
24031;BME280;12240;51.142;22.486;2023-09-18T10:20:07;99296.22;;;27.46;100.00
24031;BME280;12240;51.142;22.486;2023-09-18T10:22:48;99286.81;;;27.32;100.00
24031;BME280;12240;51.142;22.486;2023-09-18T10:25:21;99288.63;;;27.53;100.00
24031;BME280;12240;51.142;22.486;2023-09-18T10:27:52;99273.59;;;27.61;100.00
24031;BME280;12240;51.142;22.486;2023-09-18T10:30:21;99276.97;;;27.78;100.00
24031;BME280;12240;51.142;22.486;2023-09-18T10:32:52;99272.00;;;28.21;100.00
24031;BME280;12240;51.142;22.486;2023-09-18T10:35:20;99265.63;;;27.96;100.00
24031;BME280;12240;51.142;22.486;2023-09-18T10:37:49;99281.34;;;27.74;100.00
24031;BME280;12240;51.142;22.486;2023-09-18T10:40:22;99266.84;;;27.73;100.00
24031;BME280;12240;51.142;22.486;2023-09-18T10:42:53;99250.53;;;27.41;100.00
24031;BME280;12240;51.142;22.486;2023-09-18T10:45:22;99256.78;;;27.37;100.00
24031;BME280;12240;51.142;22.486;2023-09-18T10:47:51;99265.56;;;27.39;100.00
24031;BME280;12240;51.142;22.486;2023-09-18T10:50:26;99270.56;;;27.57;100.00
24031;BME280;12240;51.142;22.486;2023-09-18T10:52:57;99257.34;;;27.39;100.00
24031;BME280;12240;51.142;22.486;2023-09-18T10:55:26;99259.53;;;27.42;100.00
24031;BME280;12240;51.142;22.486;2023-09-18T10:57:56;99252.44;;;27.09;100.00
24031;BME280;12240;51.142;22.486;2023-09-18T11:00:26;99264.53;;;27.50;100.00
24031;BME280;12240;51.142;22.486;2023-09-18T11:03:18;99260.31;;;27.74;100.00
24031;BME280;12240;51.142;22.486;2023-09-18T11:06:02;99246.91;;;27.31;100.00
24031;BME280;12240;51.142;22.486;2023-09-18T11:08:34;99250.09;;;27.60;100.00
24031;BME280;12240;51.142;22.486;2023-09-18T11:11:08;99235.72;;;27.89;100.00
24031;BME280;12240;51.142;22.486;2023-09-18T11:13:51;99243.22;;;28.14;100.00
24031;BME280;12240;51.142;22.486;2023-09-18T11:21:34;99236.53;;;28.56;97.41
24031;BME280;12240;51.142;22.486;2023-09-18T11:24:16;99225.50;;;28.46;95.80
24031;BME280;12240;51.142;22.486;2023-09-18T11:26:47;99229.06;;;28.32;97.23
24031;BME280;12240;51.142;22.486;2023-09-18T11:29:22;99234.88;;;28.71;96.08
24031;BME280;12240;51.142;22.486;2023-09-18T11:31:56;99229.31;;;28.30;97.25
24031;BME280;12240;51.142;22.486;2023-09-18T11:34:31;99228.22;;;28.26;96.77
24031;BME280;12240;51.142;22.486;2023-09-18T11:37:20;99224.97;;;28.49;95.96
24031;BME280;12240;51.142;22.486;2023-09-18T11:39:48;99226.94;;;28.64;95.65
24031;BME280;12240;51.142;22.486;2023-09-18T11:42:20;99227.50;;;28.96;95.27
24031;BME280;12240;51.142;22.486;2023-09-18T11:44:55;99226.94;;;28.54;95.98
24031;BME280;12240;51.142;22.486;2023-09-18T11:47:24;99233.81;;;28.67;95.49
24031;BME280;12240;51.142;22.486;2023-09-18T11:49:58;99218.66;;;28.44;93.19
24031;BME280;12240;51.142;22.486;2023-09-18T11:52:29;99224.19;;;28.59;93.30
24031;BME280;12240;51.142;22.486;2023-09-18T11:54:59;99228.88;;;29.19;93.39
24031;BME280;12240;51.142;22.486;2023-09-18T11:57:28;99217.06;;;28.93;92.39
24031;BME280;12240;51.142;22.486;2023-09-18T11:59:57;99215.69;;;28.50;92.12
24031;BME280;12240;51.142;22.486;2023-09-18T12:02:39;99221.19;;;28.91;91.38
24031;BME280;12240;51.142;22.486;2023-09-18T12:05:13;99216.66;;;28.09;91.86
24031;BME280;12240;51.142;22.486;2023-09-18T12:07:44;99228.84;;;27.82;93.70
24031;BME280;12240;51.142;22.486;2023-09-18T12:10:19;99237.25;;;27.65;95.42
24031;BME280;12240;51.142;22.486;2023-09-18T12:12:48;99239.94;;;28.07;95.33
24031;BME280;12240;51.142;22.486;2023-09-18T12:15:18;99239.56;;;28.85;93.76
24031;BME280;12240;51.142;22.486;2023-09-18T12:17:47;99209.03;;;28.16;91.71
24031;BME280;12240;51.142;22.486;2023-09-18T12:20:17;99203.56;;;28.16;90.87
24031;BME280;12240;51.142;22.486;2023-09-18T12:22:48;99207.25;;;27.85;91.36
24031;BME280;12240;51.142;22.486;2023-09-18T12:25:16;99199.31;;;27.89;90.65
24031;BME280;12240;51.142;22.486;2023-09-18T12:27:46;99191.19;;;27.99;90.43
24031;BME280;12240;51.142;22.486;2023-09-18T12:30:21;99198.81;;;27.97;89.01
24031;BME280;12240;51.142;22.486;2023-09-18T12:32:52;99191.53;;;28.22;88.02
24031;BME280;12240;51.142;22.486;2023-09-18T12:35:20;99207.09;;;28.07;90.74
24031;BME280;12240;51.142;22.486;2023-09-18T12:37:49;99218.66;;;28.44;91.43
24031;BME280;12240;51.142;22.486;2023-09-18T12:40:25;99221.22;;;28.86;90.69
24031;BME280;12240;51.142;22.486;2023-09-18T12:42:57;99202.28;;;29.09;89.37
24031;BME280;12240;51.142;22.486;2023-09-18T12:45:26;99168.56;;;29.14;86.63
24031;BME280;12240;51.142;22.486;2023-09-18T12:47:56;99187.47;;;29.10;88.59
24031;BME280;12240;51.142;22.486;2023-09-18T12:50:25;99193.75;;;29.31;88.53
24031;BME280;12240;51.142;22.486;2023-09-18T12:52:53;99185.53;;;29.26;86.38
24031;BME280;12240;51.142;22.486;2023-09-18T12:55:33;99177.91;;;28.57;85.12
24031;BME280;12240;51.142;22.486;2023-09-18T12:58:02;99187.16;;;28.31;86.79
24031;BME280;12240;51.142;22.486;2023-09-18T13:00:33;99188.91;;;27.76;88.10
24031;BME280;12240;51.142;22.486;2023-09-18T13:03:03;99189.72;;;27.81;88.75
24031;BME280;12240;51.142;22.486;2023-09-18T13:05:33;99202.06;;;27.89;89.86
24031;BME280;12240;51.142;22.486;2023-09-18T13:08:03;99190.28;;;27.88;88.43
24031;BME280;12240;51.142;22.486;2023-09-18T13:10:43;99207.16;;;28.42;89.20
24031;BME280;12240;51.142;22.486;2023-09-18T13:13:20;99185.56;;;28.65;87.28
24031;BME280;12240;51.142;22.486;2023-09-18T13:15:50;99180.06;;;28.96;87.80
24031;BME280;12240;51.142;22.486;2023-09-18T13:18:22;99171.03;;;28.95;86.70
24031;BME280;12240;51.142;22.486;2023-09-18T13:20:53;99155.72;;;28.84;85.45
24031;BME280;12240;51.142;22.486;2023-09-18T13:23:28;99143.09;;;28.83;84.20
24031;BME280;12240;51.142;22.486;2023-09-18T13:26:03;99161.72;;;28.51;85.66
24031;BME280;12240;51.142;22.486;2023-09-18T13:28:34;99172.13;;;28.54;86.76